sensor_id;sensor_type;location;lat;lon;timestamp;pressure;altitude;pressure_sealevel;temperature;humidity
71907;BME280;59781;52.090;5.030;2023-02-15T00:02:14;102876.75;;;1.96;98.63
71907;BME280;59781;52.090;5.030;2023-02-15T00:04:40;102884.00;;;1.92;98.70
71907;BME280;59781;52.090;5.030;2023-02-15T00:07:14;102881.69;;;2.05;98.19
71907;BME280;59781;52.090;5.030;2023-02-15T00:09:41;102881.09;;;2.19;98.15
71907;BME280;59781;52.090;5.030;2023-02-15T00:12:09;102878.25;;;2.03;96.77
71907;BME280;59781;52.090;5.030;2023-02-15T00:14:35;102875.25;;;1.90;97.94
71907;BME280;59781;52.090;5.030;2023-02-15T00:17:01;102878.56;;;1.95;98.21
71907;BME280;59781;52.090;5.030;2023-02-15T00:19:27;102867.34;;;1.89;97.76
71907;BME280;59781;52.090;5.030;2023-02-15T00:21:52;102868.88;;;1.94;97.93
71907;BME280;59781;52.090;5.030;2023-02-15T00:24:19;102867.94;;;2.16;98.24
71907;BME280;59781;52.090;5.030;2023-02-15T00:26:46;102861.97;;;2.11;97.28
71907;BME280;59781;52.090;5.030;2023-02-15T00:29:15;102861.25;;;2.07;97.09
71907;BME280;59781;52.090;5.030;2023-02-15T00:31:43;102863.16;;;1.83;97.83
71907;BME280;59781;52.090;5.030;2023-02-15T00:34:21;102858.28;;;1.72;98.29
71907;BME280;59781;52.090;5.030;2023-02-15T00:36:48;102853.78;;;1.75;98.50
71907;BME280;59781;52.090;5.030;2023-02-15T00:39:16;102853.13;;;1.69;98.05
71907;BME280;59781;52.090;5.030;2023-02-15T00:41:43;102854.97;;;1.67;98.18
71907;BME280;59781;52.090;5.030;2023-02-15T00:44:11;102852.72;;;1.58;98.42
71907;BME280;59781;52.090;5.030;2023-02-15T00:46:37;102839.28;;;1.61;98.73
71907;BME280;59781;52.090;5.030;2023-02-15T00:49:03;102847.72;;;1.51;99.02
71907;BME280;59781;52.090;5.030;2023-02-15T00:51:30;102856.47;;;1.53;98.73
71907;BME280;59781;52.090;5.030;2023-02-15T00:53:57;102846.47;;;1.59;99.08
71907;BME280;59781;52.090;5.030;2023-02-15T00:56:23;102846.13;;;1.67;99.04
71907;BME280;59781;52.090;5.030;2023-02-15T00:58:49;102842.56;;;1.68;98.18
71907;BME280;59781;52.090;5.030;2023-02-15T01:01:17;102842.88;;;1.60;97.71
71907;BME280;59781;52.090;5.030;2023-02-15T01:03:45;102847.81;;;1.69;97.72
71907;BME280;59781;52.090;5.030;2023-02-15T01:06:16;102838.69;;;1.75;98.06
71907;BME280;59781;52.090;5.030;2023-02-15T01:08:45;102842.75;;;1.63;97.62
71907;BME280;59781;52.090;5.030;2023-02-15T01:11:18;102843.41;;;1.48;98.03
71907;BME280;59781;52.090;5.030;2023-02-15T01:13:52;102841.78;;;1.44;98.80
71907;BME280;59781;52.090;5.030;2023-02-15T01:16:22;102837.47;;;1.41;98.67
71907;BME280;59781;52.090;5.030;2023-02-15T01:18:50;102842.28;;;1.32;98.73
71907;BME280;59781;52.090;5.030;2023-02-15T01:21:22;102835.03;;;1.35;99.12
71907;BME280;59781;52.090;5.030;2023-02-15T01:23:51;102823.59;;;1.97;100.00
71907;BME280;59781;52.090;5.030;2023-02-15T01:26:19;102819.28;;;2.53;100.00
71907;BME280;59781;52.090;5.030;2023-02-15T01:28:45;102812.53;;;3.02;100.00
71907;BME280;59781;52.090;5.030;2023-02-15T01:31:20;102813.06;;;3.28;100.00
71907;BME280;59781;52.090;5.030;2023-02-15T01:33:50;102811.34;;;3.44;100.00
71907;BME280;59781;52.090;5.030;2023-02-15T01:36:17;102802.44;;;3.45;99.79
71907;BME280;59781;52.090;5.030;2023-02-15T01:38:43;102799.38;;;3.53;100.00
71907;BME280;59781;52.090;5.030;2023-02-15T01:41:10;102803.63;;;3.57;100.00
71907;BME280;59781;52.090;5.030;2023-02-15T01:44:00;102797.03;;;3.64;99.25
71907;BME280;59781;52.090;5.030;2023-02-15T01:46:40;102795.16;;;3.66;98.10
71907;BME280;59781;52.090;5.030;2023-02-15T01:49:18;102792.06;;;3.91;99.66
71907;BME280;59781;52.090;5.030;2023-02-15T01:51:52;102791.00;;;3.95;99.65
71907;BME280;59781;52.090;5.030;2023-02-15T01:54:29;102788.41;;;3.76;98.84
71907;BME280;59781;52.090;5.030;2023-02-15T01:57:11;102794.91;;;3.88;99.78
71907;BME280;59781;52.090;5.030;2023-02-15T01:59:47;102787.56;;;3.76;99.29
71907;BME280;59781;52.090;5.030;2023-02-15T02:02:19;102790.28;;;3.39;97.30
71907;BME280;59781;52.090;5.030;2023-02-15T02:04:56;102798.53;;;3.87;99.44
71907;BME280;59781;52.090;5.030;2023-02-15T02:07:38;102782.19;;;3.93;99.06
71907;BME280;59781;52.090;5.030;2023-02-15T02:10:13;102783.13;;;3.92;99.44
71907;BME280;59781;52.090;5.030;2023-02-15T02:12:45;102791.94;;;3.94;99.87
71907;BME280;59781;52.090;5.030;2023-02-15T02:15:13;102781.09;;;3.97;100.00
71907;BME280;59781;52.090;5.030;2023-02-15T02:20:43;102773.34;;;4.25;100.00
71907;BME280;59781;52.090;5.030;2023-02-15T02:35:30;102748.53;;;3.74;100.00
71907;BME280;59781;52.090;5.030;2023-02-15T02:38:42;102743.22;;;3.90;100.00
71907;BME280;59781;52.090;5.030;2023-02-15T02:41:38;102749.44;;;3.73;100.00
71907;BME280;59781;52.090;5.030;2023-02-15T02:47:33;102751.28;;;3.56;100.00
71907;BME280;59781;52.090;5.030;2023-02-15T02:50:08;102734.44;;;3.38;100.00
71907;BME280;59781;52.090;5.030;2023-02-15T02:52:56;102733.75;;;3.34;100.00
71907;BME280;59781;52.090;5.030;2023-02-15T02:55:53;102733.72;;;3.52;100.00
71907;BME280;59781;52.090;5.030;2023-02-15T02:58:48;102732.22;;;3.63;100.00
71907;BME280;59781;52.090;5.030;2023-02-15T03:02:23;102734.59;;;3.35;100.00
71907;BME280;59781;52.090;5.030;2023-02-15T03:04:41;102723.06;;;3.17;100.00
71907;BME280;59781;52.090;5.030;2023-02-15T03:07:27;102715.94;;;3.17;100.00
71907;BME280;59781;52.090;5.030;2023-02-15T03:09:59;102707.22;;;3.14;100.00
71907;BME280;59781;52.090;5.030;2023-02-15T03:12:31;102711.88;;;3.28;100.00
71907;BME280;59781;52.090;5.030;2023-02-15T03:18:02;102704.75;;;3.45;100.00
71907;BME280;59781;52.090;5.030;2023-02-15T03:20:32;102702.22;;;3.60;100.00
71907;BME280;59781;52.090;5.030;2023-02-15T03:23:10;102709.25;;;3.61;100.00
71907;BME280;59781;52.090;5.030;2023-02-15T03:25:50;102706.06;;;3.20;100.00
71907;BME280;59781;52.090;5.030;2023-02-15T03:28:43;102711.63;;;3.32;100.00
71907;BME280;59781;52.090;5.030;2023-02-15T03:31:15;102703.31;;;3.21;100.00
71907;BME280;59781;52.090;5.030;2023-02-15T03:33:57;102702.91;;;2.94;100.00
71907;BME280;59781;52.090;5.030;2023-02-15T03:39:38;102708.09;;;3.32;100.00
71907;BME280;59781;52.090;5.030;2023-02-15T03:42:19;102704.34;;;3.19;100.00
71907;BME280;59781;52.090;5.030;2023-02-15T03:45:15;102714.22;;;3.16;100.00
71907;BME280;59781;52.090;5.030;2023-02-15T03:47:53;102704.34;;;3.19;100.00
71907;BME280;59781;52.090;5.030;2023-02-15T03:50:30;102702.00;;;2.95;100.00
71907;BME280;59781;52.090;5.030;2023-02-15T03:53:22;102692.94;;;3.16;100.00
71907;BME280;59781;52.090;5.030;2023-02-15T03:55:54;102692.06;;;3.16;100.00
71907;BME280;59781;52.090;5.030;2023-02-15T03:58:21;102690.41;;;3.13;100.00
71907;BME280;59781;52.090;5.030;2023-02-15T04:01:17;102682.56;;;3.10;100.00
71907;BME280;59781;52.090;5.030;2023-02-15T04:04:34;102691.75;;;3.05;100.00
71907;BME280;59781;52.090;5.030;2023-02-15T04:07:04;102692.06;;;3.16;100.00
71907;BME280;59781;52.090;5.030;2023-02-15T04:09:32;102693.91;;;3.14;100.00
71907;BME280;59781;52.090;5.030;2023-02-15T04:12:17;102684.91;;;2.82;100.00
71907;BME280;59781;52.090;5.030;2023-02-15T04:14:43;102678.69;;;3.17;100.00
71907;BME280;59781;52.090;5.030;2023-02-15T04:17:28;102680.88;;;3.27;100.00
71907;BME280;59781;52.090;5.030;2023-02-15T04:19:54;102687.50;;;3.01;100.00
71907;BME280;59781;52.090;5.030;2023-02-15T04:22:38;102672.09;;;3.07;100.00
71907;BME280;59781;52.090;5.030;2023-02-15T04:25:23;102684.22;;;3.13;100.00
71907;BME280;59781;52.090;5.030;2023-02-15T04:27:51;102678.75;;;3.16;100.00
71907;BME280;59781;52.090;5.030;2023-02-15T04:30:23;102674.34;;;2.80;100.00
71907;BME280;59781;52.090;5.030;2023-02-15T04:32:50;102663.06;;;2.75;100.00
71907;BME280;59781;52.090;5.030;2023-02-15T04:35:17;102666.38;;;2.62;100.00
71907;BME280;59781;52.090;5.030;2023-02-15T04:37:43;102668.72;;;2.86;100.00
71907;BME280;59781;52.090;5.030;2023-02-15T04:40:11;102658.63;;;3.10;100.00
71907;BME280;59781;52.090;5.030;2023-02-15T04:42:39;102656.88;;;2.92;100.00
71907;BME280;59781;52.090;5.030;2023-02-15T04:45:05;102655.47;;;2.85;100.00
71907;BME280;59781;52.090;5.030;2023-02-15T04:47:32;102656.28;;;2.87;100.00
71907;BME280;59781;52.090;5.030;2023-02-15T04:49:57;102647.28;;;3.07;100.00
71907;BME280;59781;52.090;5.030;2023-02-15T04:52:23;102656.34;;;2.85;100.00
71907;BME280;59781;52.090;5.030;2023-02-15T04:54:49;102655.34;;;3.05;100.00
71907;BME280;59781;52.090;5.030;2023-02-15T04:57:15;102651.31;;;2.79;100.00
71907;BME280;59781;52.090;5.030;2023-02-15T04:59:41;102655.84;;;2.60;100.00
71907;BME280;59781;52.090;5.030;2023-02-15T05:02:06;102654.72;;;2.64;100.00
71907;BME280;59781;52.090;5.030;2023-02-15T05:04:32;102656.66;;;2.79;100.00
71907;BME280;59781;52.090;5.030;2023-02-15T05:06:58;102658.78;;;2.90;100.00
71907;BME280;59781;52.090;5.030;2023-02-15T05:09:24;102653.91;;;2.81;100.00
71907;BME280;59781;52.090;5.030;2023-02-15T05:11:50;102653.41;;;2.73;100.00
71907;BME280;59781;52.090;5.030;2023-02-15T05:14:15;102649.72;;;2.58;100.00
71907;BME280;59781;52.090;5.030;2023-02-15T05:16:41;102652.06;;;2.64;100.00
71907;BME280;59781;52.090;5.030;2023-02-15T05:19:07;102645.34;;;2.57;100.00
71907;BME280;59781;52.090;5.030;2023-02-15T05:21:33;102648.63;;;2.62;100.00
71907;BME280;59781;52.090;5.030;2023-02-15T05:23:59;102642.19;;;2.49;100.00
71907;BME280;59781;52.090;5.030;2023-02-15T05:26:25;102641.84;;;2.74;100.00
71907;BME280;59781;52.090;5.030;2023-02-15T05:29:10;102636.69;;;2.71;100.00
71907;BME280;59781;52.090;5.030;2023-02-15T05:31:36;102643.34;;;2.79;100.00
71907;BME280;59781;52.090;5.030;2023-02-15T05:34:03;102647.84;;;2.96;100.00
71907;BME280;59781;52.090;5.030;2023-02-15T05:36:29;102653.22;;;2.77;100.00
71907;BME280;59781;52.090;5.030;2023-02-15T05:38:55;102652.50;;;2.38;100.00
71907;BME280;59781;52.090;5.030;2023-02-15T05:41:21;102637.50;;;2.37;100.00
71907;BME280;59781;52.090;5.030;2023-02-15T05:43:47;102639.53;;;2.49;100.00
71907;BME280;59781;52.090;5.030;2023-02-15T05:46:12;102632.00;;;2.40;100.00
71907;BME280;59781;52.090;5.030;2023-02-15T05:48:38;102633.41;;;2.29;100.00
71907;BME280;59781;52.090;5.030;2023-02-15T05:51:07;102637.69;;;2.68;100.00
71907;BME280;59781;52.090;5.030;2023-02-15T05:53:37;102633.25;;;2.69;100.00
71907;BME280;59781;52.090;5.030;2023-02-15T05:56:05;102621.66;;;2.34;100.00
71907;BME280;59781;52.090;5.030;2023-02-15T05:58:38;102622.53;;;2.34;100.00
71907;BME280;59781;52.090;5.030;2023-02-15T06:01:14;102636.78;;;2.14;100.00
71907;BME280;59781;52.090;5.030;2023-02-15T06:03:43;102632.13;;;2.19;100.00
71907;BME280;59781;52.090;5.030;2023-02-15T06:06:09;102636.22;;;2.08;100.00
71907;BME280;59781;52.090;5.030;2023-02-15T06:08:37;102635.28;;;2.09;100.00
71907;BME280;59781;52.090;5.030;2023-02-15T06:11:04;102629.72;;;2.13;100.00
71907;BME280;59781;52.090;5.030;2023-02-15T06:13:31;102632.31;;;2.15;100.00
71907;BME280;59781;52.090;5.030;2023-02-15T06:15:58;102635.91;;;2.14;100.00
71907;BME280;59781;52.090;5.030;2023-02-15T06:18:24;102635.28;;;2.27;100.00
71907;BME280;59781;52.090;5.030;2023-02-15T06:20:50;102630.25;;;2.03;100.00
71907;BME280;59781;52.090;5.030;2023-02-15T06:23:16;102619.19;;;1.93;100.00
71907;BME280;59781;52.090;5.030;2023-02-15T06:25:41;102614.22;;;1.85;100.00
71907;BME280;59781;52.090;5.030;2023-02-15T06:28:07;102616.38;;;1.96;100.00
71907;BME280;59781;52.090;5.030;2023-02-15T06:30:33;102622.34;;;2.01;100.00
71907;BME280;59781;52.090;5.030;2023-02-15T06:32:59;102625.59;;;1.89;100.00
71907;BME280;59781;52.090;5.030;2023-02-15T06:35:25;102617.75;;;2.05;100.00
71907;BME280;59781;52.090;5.030;2023-02-15T06:37:50;102618.03;;;1.98;100.00
71907;BME280;59781;52.090;5.030;2023-02-15T06:40:16;102618.75;;;1.83;100.00
71907;BME280;59781;52.090;5.030;2023-02-15T06:42:43;102615.06;;;2.05;100.00
71907;BME280;59781;52.090;5.030;2023-02-15T06:45:10;102623.06;;;2.05;100.00
71907;BME280;59781;52.090;5.030;2023-02-15T06:47:36;102618.25;;;2.13;100.00
71907;BME280;59781;52.090;5.030;2023-02-15T06:50:03;102620.53;;;2.20;100.00
71907;BME280;59781;52.090;5.030;2023-02-15T06:52:30;102626.28;;;2.30;100.00
71907;BME280;59781;52.090;5.030;2023-02-15T06:54:56;102624.31;;;2.34;100.00
71907;BME280;59781;52.090;5.030;2023-02-15T06:57:22;102631.50;;;2.32;100.00
71907;BME280;59781;52.090;5.030;2023-02-15T06:59:47;102626.56;;;2.60;100.00
71907;BME280;59781;52.090;5.030;2023-02-15T07:02:13;102629.22;;;2.60;100.00
71907;BME280;59781;52.090;5.030;2023-02-15T07:04:40;102623.81;;;2.25;100.00
71907;BME280;59781;52.090;5.030;2023-02-15T07:07:09;102627.03;;;2.51;100.00
71907;BME280;59781;52.090;5.030;2023-02-15T07:09:35;102623.72;;;2.46;100.00
71907;BME280;59781;52.090;5.030;2023-02-15T07:12:02;102630.66;;;2.31;100.00
71907;BME280;59781;52.090;5.030;2023-02-15T07:14:46;102619.91;;;2.51;100.00
71907;BME280;59781;52.090;5.030;2023-02-15T07:17:12;102622.03;;;2.62;100.00
71907;BME280;59781;52.090;5.030;2023-02-15T07:19:37;102620.97;;;2.30;100.00
71907;BME280;59781;52.090;5.030;2023-02-15T07:22:03;102610.78;;;2.02;100.00
71907;BME280;59781;52.090;5.030;2023-02-15T07:24:30;102610.44;;;1.91;100.00
71907;BME280;59781;52.090;5.030;2023-02-15T07:26:56;102606.81;;;2.11;100.00
71907;BME280;59781;52.090;5.030;2023-02-15T07:29:23;102595.84;;;2.18;100.00
71907;BME280;59781;52.090;5.030;2023-02-15T07:31:49;102598.00;;;2.10;100.00
71907;BME280;59781;52.090;5.030;2023-02-15T07:34:15;102594.75;;;2.22;100.00
71907;BME280;59781;52.090;5.030;2023-02-15T07:36:41;102595.84;;;2.18;100.00
71907;BME280;59781;52.090;5.030;2023-02-15T07:39:09;102592.28;;;2.54;100.00
71907;BME280;59781;52.090;5.030;2023-02-15T07:41:35;102588.94;;;2.50;100.00
71907;BME280;59781;52.090;5.030;2023-02-15T07:44:14;102584.97;;;2.59;100.00
71907;BME280;59781;52.090;5.030;2023-02-15T07:46:40;102580.66;;;2.74;100.00
71907;BME280;59781;52.090;5.030;2023-02-15T07:49:06;102585.69;;;2.80;100.00
71907;BME280;59781;52.090;5.030;2023-02-15T07:51:33;102581.84;;;2.85;100.00
71907;BME280;59781;52.090;5.030;2023-02-15T07:53:59;102581.53;;;2.92;100.00
71907;BME280;59781;52.090;5.030;2023-02-15T07:56:25;102569.53;;;3.00;100.00
71907;BME280;59781;52.090;5.030;2023-02-15T07:58:51;102569.22;;;3.06;100.00
71907;BME280;59781;52.090;5.030;2023-02-15T08:01:24;102568.28;;;3.40;100.00
71907;BME280;59781;52.090;5.030;2023-02-15T08:03:53;102565.03;;;3.51;100.00
71907;BME280;59781;52.090;5.030;2023-02-15T08:06:21;102566.66;;;3.05;100.00
71907;BME280;59781;52.090;5.030;2023-02-15T08:08:51;102575.03;;;2.80;100.00
71907;BME280;59781;52.090;5.030;2023-02-15T08:11:25;102560.28;;;3.25;100.00
71907;BME280;59781;52.090;5.030;2023-02-15T08:14:19;102568.19;;;3.91;100.00
71907;BME280;59781;52.090;5.030;2023-02-15T08:16:48;102560.34;;;5.38;92.28
71907;BME280;59781;52.090;5.030;2023-02-15T08:19:29;102556.81;;;5.09;91.78
71907;BME280;59781;52.090;5.030;2023-02-15T08:21:59;102568.84;;;5.30;89.03
71907;BME280;59781;52.090;5.030;2023-02-15T08:24:30;102558.25;;;5.14;90.58
71907;BME280;59781;52.090;5.030;2023-02-15T08:26:58;102560.16;;;5.12;91.05
71907;BME280;59781;52.090;5.030;2023-02-15T08:29:27;102560.44;;;4.94;91.99
71907;BME280;59781;52.090;5.030;2023-02-15T08:32:03;102546.72;;;4.70;92.23
71907;BME280;59781;52.090;5.030;2023-02-15T08:34:35;102549.84;;;5.21;91.13
71907;BME280;59781;52.090;5.030;2023-02-15T08:37:03;102549.53;;;4.97;91.37
71907;BME280;59781;52.090;5.030;2023-02-15T08:39:31;102552.81;;;5.02;91.92
71907;BME280;59781;52.090;5.030;2023-02-15T08:41:57;102551.78;;;5.33;90.86
71907;BME280;59781;52.090;5.030;2023-02-15T08:44:22;102540.88;;;5.64;90.28
71907;BME280;59781;52.090;5.030;2023-02-15T08:46:49;102542.56;;;5.94;86.95
71907;BME280;59781;52.090;5.030;2023-02-15T08:49:18;102538.59;;;6.14;87.52
71907;BME280;59781;52.090;5.030;2023-02-15T08:51:46;102540.56;;;5.69;87.06
71907;BME280;59781;52.090;5.030;2023-02-15T08:54:16;102542.19;;;5.00;89.84
71907;BME280;59781;52.090;5.030;2023-02-15T08:56:44;102538.31;;;5.48;87.27
71907;BME280;59781;52.090;5.030;2023-02-15T08:59:22;102537.66;;;5.45;89.65
71907;BME280;59781;52.090;5.030;2023-02-15T09:01:50;102536.88;;;6.13;84.75
71907;BME280;59781;52.090;5.030;2023-02-15T09:04:17;102535.22;;;5.83;85.99
71907;BME280;59781;52.090;5.030;2023-02-15T09:06:45;102539.63;;;5.70;87.27
71907;BME280;59781;52.090;5.030;2023-02-15T09:09:12;102534.06;;;5.87;86.13
71907;BME280;59781;52.090;5.030;2023-02-15T09:11:43;102535.53;;;5.64;87.16
71907;BME280;59781;52.090;5.030;2023-02-15T09:14:16;102532.50;;;6.12;84.78
71907;BME280;59781;52.090;5.030;2023-02-15T09:16:45;102529.28;;;6.46;83.66
71907;BME280;59781;52.090;5.030;2023-02-15T09:19:14;102525.53;;;6.88;83.04
71907;BME280;59781;52.090;5.030;2023-02-15T09:21:41;102523.44;;;6.67;82.12
71907;BME280;59781;52.090;5.030;2023-02-15T09:24:11;102514.03;;;7.25;80.45
71907;BME280;59781;52.090;5.030;2023-02-15T09:26:41;102513.00;;;6.89;81.50
71907;BME280;59781;52.090;5.030;2023-02-15T09:29:09;102524.84;;;6.59;83.10
71907;BME280;59781;52.090;5.030;2023-02-15T09:31:42;102521.69;;;7.18;82.04
71907;BME280;59781;52.090;5.030;2023-02-15T09:34:11;102516.97;;;7.71;78.06
71907;BME280;59781;52.090;5.030;2023-02-15T09:36:40;102513.19;;;7.24;80.01
71907;BME280;59781;52.090;5.030;2023-02-15T09:51:11;102520.47;;;8.91;72.95
71907;BME280;59781;52.090;5.030;2023-02-15T09:54:17;102523.66;;;9.63;69.95
71907;BME280;59781;52.090;5.030;2023-02-15T09:56:52;102523.53;;;9.76;69.52
71907;BME280;59781;52.090;5.030;2023-02-15T10:08:54;102535.88;;;9.90;68.18
71907;BME280;59781;52.090;5.030;2023-02-15T10:11:36;102525.75;;;9.15;69.16
71907;BME280;59781;52.090;5.030;2023-02-15T10:17:19;102530.22;;;11.10;64.92
71907;BME280;59781;52.090;5.030;2023-02-15T10:20:25;102531.50;;;10.64;64.34
71907;BME280;59781;52.090;5.030;2023-02-15T10:26:21;102529.47;;;11.59;63.73
71907;BME280;59781;52.090;5.030;2023-02-15T10:28:49;102534.88;;;11.69;62.46
71907;BME280;59781;52.090;5.030;2023-02-15T10:31:34;102525.34;;;11.95;60.86
71907;BME280;59781;52.090;5.030;2023-02-15T10:49:50;102526.59;;;10.37;66.42
71907;BME280;59781;52.090;5.030;2023-02-15T10:53:01;102518.19;;;11.14;64.23
71907;BME280;59781;52.090;5.030;2023-02-15T10:55:52;102513.19;;;10.47;66.62
71907;BME280;59781;52.090;5.030;2023-02-15T11:01:44;102497.25;;;10.55;67.83
71907;BME280;59781;52.090;5.030;2023-02-15T11:04:39;102499.88;;;10.45;68.45
71907;BME280;59781;52.090;5.030;2023-02-15T11:07:24;102494.56;;;10.76;67.49
71907;BME280;59781;52.090;5.030;2023-02-15T11:13:08;102485.31;;;10.99;66.72
71907;BME280;59781;52.090;5.030;2023-02-15T11:16:00;102484.56;;;10.02;68.57
71907;BME280;59781;52.090;5.030;2023-02-15T11:18:42;102489.97;;;9.91;69.07
71907;BME280;59781;52.090;5.030;2023-02-15T11:21:24;102476.31;;;10.26;68.63
71907;BME280;59781;52.090;5.030;2023-02-15T11:23:54;102473.63;;;10.26;68.15
71907;BME280;59781;52.090;5.030;2023-02-15T11:26:33;102457.84;;;11.45;65.18
71907;BME280;59781;52.090;5.030;2023-02-15T11:31:57;102451.84;;;11.32;65.61
71907;BME280;59781;52.090;5.030;2023-02-15T11:34:35;102446.72;;;11.29;65.19
71907;BME280;59781;52.090;5.030;2023-02-15T11:37:15;102442.34;;;11.97;61.73
71907;BME280;59781;52.090;5.030;2023-02-15T11:39:45;102429.78;;;11.67;63.47
71907;BME280;59781;52.090;5.030;2023-02-15T11:42:21;102434.66;;;11.24;64.21
71907;BME280;59781;52.090;5.030;2023-02-15T11:45:31;102423.28;;;11.89;63.39
71907;BME280;59781;52.090;5.030;2023-02-15T11:47:59;102419.56;;;12.58;60.92
71907;BME280;59781;52.090;5.030;2023-02-15T11:50:29;102424.59;;;12.33;60.89
71907;BME280;59781;52.090;5.030;2023-02-15T11:53:04;102422.41;;;11.79;62.86
71907;BME280;59781;52.090;5.030;2023-02-15T11:55:36;102422.19;;;13.24;58.72
71907;BME280;59781;52.090;5.030;2023-02-15T12:04:04;102425.66;;;13.07;59.67
71907;BME280;59781;52.090;5.030;2023-02-15T12:06:46;102417.88;;;12.94;59.34
71907;BME280;59781;52.090;5.030;2023-02-15T12:09:37;102423.06;;;13.25;57.99
71907;BME280;59781;52.090;5.030;2023-02-15T12:12:29;102424.44;;;12.91;59.20
71907;BME280;59781;52.090;5.030;2023-02-15T12:15:03;102414.56;;;12.63;59.41
71907;BME280;59781;52.090;5.030;2023-02-15T12:17:51;102396.47;;;12.73;60.94
71907;BME280;59781;52.090;5.030;2023-02-15T12:22:50;102386.75;;;13.45;58.91
71907;BME280;59781;52.090;5.030;2023-02-15T12:25:41;102384.13;;;12.61;60.92
71907;BME280;59781;52.090;5.030;2023-02-15T12:28:25;102369.28;;;13.39;58.12
71907;BME280;59781;52.090;5.030;2023-02-15T12:30:55;102382.81;;;13.39;58.68
71907;BME280;59781;52.090;5.030;2023-02-15T12:33:26;102381.09;;;13.11;59.47
71907;BME280;59781;52.090;5.030;2023-02-15T12:36:22;102373.97;;;12.82;59.93
71907;BME280;59781;52.090;5.030;2023-02-15T12:41:57;102380.09;;;14.28;55.42
71907;BME280;59781;52.090;5.030;2023-02-15T12:47:05;102383.91;;;14.35;56.71
71907;BME280;59781;52.090;5.030;2023-02-15T12:49:44;102377.91;;;15.10;53.44
71907;BME280;59781;52.090;5.030;2023-02-15T12:52:30;102374.88;;;14.35;54.50
71907;BME280;59781;52.090;5.030;2023-02-15T12:55:16;102376.13;;;13.97;56.24
71907;BME280;59781;52.090;5.030;2023-02-15T12:58:05;102370.03;;;12.67;60.25
71907;BME280;59781;52.090;5.030;2023-02-15T13:00:41;102377.66;;;13.64;57.47
71907;BME280;59781;52.090;5.030;2023-02-15T13:03:17;102376.38;;;13.13;58.33
71907;BME280;59781;52.090;5.030;2023-02-15T13:05:50;102392.53;;;13.60;57.31
71907;BME280;59781;52.090;5.030;2023-02-15T13:08:21;102379.34;;;13.65;57.60
71907;BME280;59781;52.090;5.030;2023-02-15T13:11:06;102376.88;;;12.99;59.48
71907;BME280;59781;52.090;5.030;2023-02-15T13:13:56;102378.25;;;13.12;60.37
71907;BME280;59781;52.090;5.030;2023-02-15T13:16:33;102380.13;;;13.02;61.04
71907;BME280;59781;52.090;5.030;2023-02-15T13:19:10;102369.63;;;13.72;58.91
71907;BME280;59781;52.090;5.030;2023-02-15T13:21:45;102373.03;;;13.92;57.88
71907;BME280;59781;52.090;5.030;2023-02-15T13:24:39;102364.44;;;13.96;56.95
71907;BME280;59781;52.090;5.030;2023-02-15T13:27:14;102362.66;;;13.87;57.36
71907;BME280;59781;52.090;5.030;2023-02-15T13:29:51;102367.94;;;13.16;59.95
71907;BME280;59781;52.090;5.030;2023-02-15T13:32:28;102368.81;;;13.16;59.40
71907;BME280;59781;52.090;5.030;2023-02-15T13:35:00;102369.47;;;13.01;59.97
71907;BME280;59781;52.090;5.030;2023-02-15T13:37:50;102373.41;;;12.32;63.18
71907;BME280;59781;52.090;5.030;2023-02-15T13:43:25;102369.16;;;12.67;62.00
71907;BME280;59781;52.090;5.030;2023-02-15T13:49:10;102354.47;;;12.42;61.20
71907;BME280;59781;52.090;5.030;2023-02-15T13:52:07;102357.69;;;12.92;60.18
71907;BME280;59781;52.090;5.030;2023-02-15T14:03:56;102340.94;;;12.51;62.46
71907;BME280;59781;52.090;5.030;2023-02-15T14:14:47;102330.91;;;12.15;63.26
71907;BME280;59781;52.090;5.030;2023-02-15T14:32:20;102332.78;;;11.75;66.43
71907;BME280;59781;52.090;5.030;2023-02-15T14:35:00;102335.78;;;11.82;65.89
71907;BME280;59781;52.090;5.030;2023-02-15T14:37:46;102333.06;;;11.72;65.63
71907;BME280;59781;52.090;5.030;2023-02-15T14:49:39;102337.69;;;12.28;64.44
71907;BME280;59781;52.090;5.030;2023-02-15T14:52:06;102339.03;;;11.95;66.21
71907;BME280;59781;52.090;5.030;2023-02-15T15:04:55;102331.06;;;11.65;66.72
71907;BME280;59781;52.090;5.030;2023-02-15T15:12:47;102334.53;;;11.07;69.61
71907;BME280;59781;52.090;5.030;2023-02-15T15:23:38;102327.66;;;10.84;70.51
71907;BME280;59781;52.090;5.030;2023-02-15T15:26:29;102333.97;;;11.13;69.64
71907;BME280;59781;52.090;5.030;2023-02-15T15:29:00;102319.97;;;11.58;68.45
71907;BME280;59781;52.090;5.030;2023-02-15T15:41:19;102318.41;;;10.77;72.60
71907;BME280;59781;52.090;5.030;2023-02-15T15:50:43;102319.41;;;11.35;70.88
71907;BME280;59781;52.090;5.030;2023-02-15T15:53:22;102312.16;;;11.45;70.35
71907;BME280;59781;52.090;5.030;2023-02-15T15:55:57;102317.31;;;10.89;72.42
71907;BME280;59781;52.090;5.030;2023-02-15T15:58:30;102307.44;;;11.18;71.88
71907;BME280;59781;52.090;5.030;2023-02-15T16:01:07;102304.06;;;11.36;70.37
71907;BME280;59781;52.090;5.030;2023-02-15T16:03:50;102307.50;;;10.88;72.79
71907;BME280;59781;52.090;5.030;2023-02-15T16:06:34;102314.28;;;11.32;70.97
71907;BME280;59781;52.090;5.030;2023-02-15T16:09:11;102315.03;;;10.84;72.49
71907;BME280;59781;52.090;5.030;2023-02-15T16:11:45;102310.78;;;10.82;72.95
71907;BME280;59781;52.090;5.030;2023-02-15T16:14:25;102313.97;;;11.16;71.17
71907;BME280;59781;52.090;5.030;2023-02-15T16:16:58;102310.44;;;11.25;70.88
71907;BME280;59781;52.090;5.030;2023-02-15T16:19:30;102313.13;;;11.25;71.28
71907;BME280;59781;52.090;5.030;2023-02-15T16:22:02;102322.28;;;10.94;72.05
71907;BME280;59781;52.090;5.030;2023-02-15T16:24:42;102314.34;;;10.92;71.79
71907;BME280;59781;52.090;5.030;2023-02-15T16:33:12;102309.75;;;10.22;76.81